Time;durP1;ratioP1;P1;durP2;ratioP2;P2;SDS_P1;SDS_P2;PMS_P1;PMS_P2;Temp;Humidity;BMP_temperature;BMP_pressure;BME280_temperature;BME280_humidity;BME280_pressure;Samples;Min_cycle;Max_cycle;Signal;HPM_P1;HPM_P2
2021/11/15 00:01:45;;;;;;;4.63;4.10;;;12.30;99.90;;;;;;6185592;23;19997;-87
2021/11/15 00:04:14;;;;;;;5.15;4.65;;;12.20;99.90;;;;;;6185727;23;20005;-86
2021/11/15 00:06:39;;;;;;;5.38;4.80;;;12.20;99.90;;;;;;6183787;23;20531;-87
2021/11/15 00:09:06;;;;;;;6.50;4.53;;;12.30;99.90;;;;;;6183671;23;20001;-86
2021/11/15 00:11:32;;;;;;;6.22;4.75;;;12.30;99.90;;;;;;6184928;23;20378;-87
2021/11/15 00:13:58;;;;;;;5.45;4.45;;;12.30;99.90;;;;;;6184968;23;20085;-89
2021/11/15 00:16:24;;;;;;;6.00;4.55;;;12.40;99.90;;;;;;6184918;23;20005;-88
2021/11/15 00:18:49;;;;;;;6.20;4.88;;;12.40;99.90;;;;;;6186403;23;20041;-87
2021/11/15 00:21:15;;;;;;;6.85;5.32;;;12.40;99.90;;;;;;6187342;23;20001;-88
2021/11/15 00:23:41;;;;;;;5.85;5.25;;;12.40;99.90;;;;;;6184759;23;20009;-87
2021/11/15 00:26:07;;;;;;;6.30;4.60;;;12.40;99.90;;;;;;6184215;23;20001;-87
2021/11/15 00:28:33;;;;;;;7.43;5.22;;;12.40;99.90;;;;;;6185122;23;20001;-86
2021/11/15 00:30:59;;;;;;;7.35;5.50;;;12.40;99.90;;;;;;6182808;23;20001;-86
2021/11/15 00:33:24;;;;;;;4.90;4.50;;;12.40;99.90;;;;;;6183833;23;20009;-88
2021/11/15 00:35:50;;;;;;;6.60;5.10;;;12.50;99.90;;;;;;6183719;23;20027;-87
2021/11/15 00:38:16;;;;;;;7.07;5.80;;;12.50;99.90;;;;;;6183904;23;20017;-86
2021/11/15 00:40:41;;;;;;;7.03;5.57;;;12.50;99.90;;;;;;6182772;23;20492;-87
2021/11/15 00:43:07;;;;;;;7.60;6.10;;;12.50;99.90;;;;;;6184996;23;20011;-86
2021/11/15 00:45:34;;;;;;;8.20;5.93;;;12.50;99.90;;;;;;6184883;23;20007;-87
2021/11/15 00:48:00;;;;;;;7.63;6.07;;;12.50;99.90;;;;;;6185641;23;20035;-87
2021/11/15 00:50:26;;;;;;;8.00;6.72;;;12.50;99.90;;;;;;6184336;23;20444;-85
2021/11/15 00:52:52;;;;;;;9.23;7.28;;;12.60;99.90;;;;;;6185064;23;21006;-85
2021/11/15 00:55:19;;;;;;;10.00;6.88;;;12.50;99.90;;;;;;6184080;23;20011;-87
2021/11/15 00:57:45;;;;;;;8.90;7.13;;;12.50;99.90;;;;;;6182715;23;20041;-87
2021/11/15 01:00:15;;;;;;;10.20;6.53;;;12.40;99.90;;;;;;6181805;23;20128;-86
2021/11/15 01:02:41;;;;;;;11.20;7.45;;;12.40;99.90;;;;;;6183833;23;20080;-85
2021/11/15 01:05:07;;;;;;;10.52;7.85;;;12.40;99.90;;;;;;6182500;23;20033;-86
2021/11/15 01:07:33;;;;;;;11.00;7.47;;;12.30;99.90;;;;;;6184809;23;20001;-86
2021/11/15 01:09:59;;;;;;;10.73;7.45;;;12.40;99.90;;;;;;6182586;23;20044;-87
2021/11/15 01:12:24;;;;;;;8.50;6.95;;;12.30;99.90;;;;;;6185736;23;20421;-85
2021/11/15 01:14:50;;;;;;;10.43;7.40;;;12.30;99.90;;;;;;6186722;23;20483;-86
2021/11/15 01:17:16;;;;;;;11.75;7.55;;;12.30;99.90;;;;;;6186688;23;20432;-87
2021/11/15 01:19:42;;;;;;;9.05;7.25;;;12.20;99.90;;;;;;6187187;23;20040;-84
2021/11/15 01:22:08;;;;;;;10.65;7.70;;;12.20;99.90;;;;;;6186174;23;19997;-88
2021/11/15 01:24:34;;;;;;;10.98;7.65;;;12.10;99.90;;;;;;6185337;23;20444;-88
2021/11/15 01:27:00;;;;;;;13.05;8.48;;;12.10;99.90;;;;;;6186355;23;20427;-85
2021/11/15 01:29:26;;;;;;;13.18;7.60;;;12.10;99.90;;;;;;6186117;23;19997;-85
2021/11/15 01:31:56;;;;;;;13.82;8.93;;;12.00;99.90;;;;;;6186158;23;20301;-87
2021/11/15 01:34:24;;;;;;;11.13;8.38;;;12.00;99.90;;;;;;6185873;23;20047;-87
2021/11/15 01:36:49;;;;;;;12.75;9.07;;;12.00;99.90;;;;;;6185798;23;20008;-85
2021/11/15 01:39:15;;;;;;;11.55;8.68;;;12.00;99.90;;;;;;6185433;23;20012;-84
2021/11/15 01:41:41;;;;;;;12.30;8.55;;;12.10;99.90;;;;;;6185697;23;19997;-87
2021/11/15 01:44:07;;;;;;;12.18;8.88;;;12.20;99.90;;;;;;6183978;23;20072;-86
2021/11/15 01:46:32;;;;;;;12.25;8.13;;;12.10;99.90;;;;;;6185752;23;20075;-85
2021/11/15 01:48:58;;;;;;;13.48;8.60;;;12.20;99.90;;;;;;6185170;23;20008;-84
2021/11/15 01:51:24;;;;;;;12.60;9.30;;;12.20;99.90;;;;;;6184722;23;19997;-84
2021/11/15 01:53:49;;;;;;;10.27;8.30;;;12.20;99.90;;;;;;6185435;23;20005;-83
2021/11/15 01:56:15;;;;;;;13.48;9.25;;;12.10;99.90;;;;;;6186545;23;20008;-83
2021/11/15 01:58:41;;;;;;;14.30;9.27;;;12.10;99.90;;;;;;6195695;23;20013;-83
2021/11/15 02:01:07;;;;;;;10.23;8.80;;;12.10;99.90;;;;;;6192655;23;20002;-85
2021/11/15 02:03:33;;;;;;;14.85;9.50;;;12.20;99.90;;;;;;6185948;23;20001;-85
2021/11/15 02:06:01;;;;;;;10.88;9.05;;;12.20;99.90;;;;;;6194640;23;19997;-84
2021/11/15 02:08:26;;;;;;;12.40;9.07;;;12.30;99.90;;;;;;6196229;23;20064;-84
2021/11/15 02:10:53;;;;;;;12.20;9.70;;;12.30;99.90;;;;;;6188889;23;20001;-84
2021/11/15 02:13:20;;;;;;;13.25;10.25;;;12.40;99.90;;;;;;6184458;23;20017;-84
2021/11/15 02:15:47;;;;;;;12.40;9.50;;;12.50;99.90;;;;;;6183151;23;20001;-85
2021/11/15 02:18:14;;;;;;;12.18;9.95;;;12.50;99.90;;;;;;6184756;23;20005;-84
2021/11/15 02:21:02;;;;;;;13.23;10.30;;;12.50;99.90;;;;;;6182774;23;20056;-85
2021/11/15 02:23:31;;;;;;;12.95;10.13;;;12.50;99.90;;;;;;6185139;23;20013;-85
2021/11/15 02:25:59;;;;;;;15.20;11.68;;;12.60;99.90;;;;;;6184322;23;20008;-86
2021/11/15 02:28:39;;;;;;;14.55;11.27;;;12.60;99.90;;;;;;6186007;23;20001;-85
2021/11/15 02:31:06;;;;;;;15.88;11.52;;;12.60;99.90;;;;;;6185065;23;20005;-84
2021/11/15 02:33:32;;;;;;;16.23;11.50;;;12.70;99.90;;;;;;6184029;23;20105;-88
2021/11/15 02:36:00;;;;;;;18.38;11.63;;;12.70;99.90;;;;;;6183264;23;20071;-85
2021/11/15 02:38:26;;;;;;;17.45;10.88;;;12.60;99.90;;;;;;6185191;23;20013;-84
2021/11/15 02:40:52;;;;;;;18.33;11.73;;;12.60;99.90;;;;;;6185223;23;20013;-85
2021/11/15 02:43:18;;;;;;;14.88;10.85;;;12.60;99.90;;;;;;6183992;23;20085;-85
2021/11/15 02:45:44;;;;;;;18.73;11.40;;;12.60;99.90;;;;;;6184740;23;20004;-85
2021/11/15 02:48:10;;;;;;;13.98;11.02;;;12.60;99.90;;;;;;6186028;23;20009;-87
2021/11/15 02:50:36;;;;;;;14.70;11.15;;;12.50;99.90;;;;;;6184603;23;20009;-86
2021/11/15 02:53:07;;;;;;;16.00;11.18;;;12.50;99.90;;;;;;6185690;23;20004;-83
2021/11/15 02:55:33;;;;;;;17.10;11.07;;;12.50;99.90;;;;;;6185393;23;20005;-87
2021/11/15 02:58:01;;;;;;;14.77;10.63;;;12.50;99.90;;;;;;6184217;23;20051;-86
2021/11/15 03:00:43;;;;;;;15.60;10.70;;;12.50;99.90;;;;;;6184225;23;20017;-86
2021/11/15 03:03:10;;;;;;;13.40;10.23;;;12.50;99.90;;;;;;6186128;23;20001;-87
2021/11/15 03:05:38;;;;;;;15.35;11.18;;;12.50;99.90;;;;;;6184589;23;20035;-88
2021/11/15 03:08:05;;;;;;;15.25;10.20;;;12.50;99.90;;;;;;6186456;23;20001;-87
2021/11/15 03:10:31;;;;;;;14.70;10.20;;;12.50;99.90;;;;;;6185781;23;20029;-86
2021/11/15 03:12:58;;;;;;;14.50;10.25;;;12.50;99.90;;;;;;6185754;23;20035;-86
2021/11/15 03:15:28;;;;;;;13.13;9.73;;;12.50;99.90;;;;;;6185013;23;20011;-86
2021/11/15 03:18:16;;;;;;;14.02;9.50;;;12.60;99.90;;;;;;6183928;23;20016;-84
2021/11/15 03:20:47;;;;;;;14.55;9.80;;;12.60;99.90;;;;;;6184856;23;20076;-84
2021/11/15 03:23:16;;;;;;;11.93;9.55;;;12.60;99.90;;;;;;6183954;23;20075;-84
2021/11/15 03:25:43;;;;;;;11.45;9.70;;;12.60;99.90;;;;;;6185136;23;20012;-83
2021/11/15 03:28:11;;;;;;;12.60;8.85;;;12.60;99.90;;;;;;6183997;23;20013;-83
2021/11/15 03:30:37;;;;;;;11.73;9.00;;;12.60;99.90;;;;;;6185295;23;19997;-87
2021/11/15 03:33:04;;;;;;;11.15;9.18;;;12.50;99.90;;;;;;6183925;23;20055;-85
2021/11/15 03:35:29;;;;;;;13.43;8.82;;;12.50;99.90;;;;;;6185068;23;20000;-85
2021/11/15 03:37:55;;;;;;;11.57;8.40;;;12.50;99.90;;;;;;6185603;23;20080;-86
2021/11/15 03:40:24;;;;;;;13.55;9.85;;;12.50;99.90;;;;;;6185028;23;20024;-85
2021/11/15 03:42:53;;;;;;;14.88;10.23;;;12.50;99.90;;;;;;6185230;23;20004;-86
2021/11/15 03:45:20;;;;;;;12.63;8.88;;;12.50;99.90;;;;;;6184876;23;20029;-85
2021/11/15 03:47:46;;;;;;;11.07;8.70;;;12.50;99.90;;;;;;6184957;23;20063;-85
2021/11/15 03:50:12;;;;;;;13.48;10.32;;;12.40;99.90;;;;;;6185190;23;20001;-86
2021/11/15 03:52:41;;;;;;;10.60;8.90;;;12.40;99.90;;;;;;6185352;23;19997;-86
2021/11/15 03:55:09;;;;;;;13.35;9.48;;;12.40;99.90;;;;;;6185008;23;20024;-86
2021/11/15 03:57:35;;;;;;;10.75;9.05;;;12.40;99.90;;;;;;6184932;23;21940;-85
2021/11/15 04:00:04;;;;;;;11.98;9.13;;;12.40;99.90;;;;;;6185199;23;20060;-86
2021/11/15 04:02:33;;;;;;;11.77;8.88;;;12.50;99.90;;;;;;6185042;23;20056;-87
2021/11/15 04:05:04;;;;;;;11.60;9.18;;;12.50;99.90;;;;;;6185090;23;20076;-87
2021/11/15 04:07:38;;;;;;;13.73;9.25;;;12.50;99.90;;;;;;6185880;23;19997;-87
2021/11/15 04:10:20;;;;;;;20.65;13.13;;;12.40;99.90;;;;;;6184848;23;20001;-86
2021/11/15 04:12:47;;;;;;;27.77;14.68;;;12.40;99.90;;;;;;6184323;23;20420;-88
2021/11/15 04:15:14;;;;;;;14.32;9.75;;;12.40;99.90;;;;;;6182537;23;20009;-85
2021/11/15 04:17:43;;;;;;;14.90;9.57;;;12.40;99.90;;;;;;6183869;23;20001;-86
2021/11/15 04:20:13;;;;;;;14.65;9.80;;;12.40;99.90;;;;;;6184404;23;20005;-84
2021/11/15 04:22:39;;;;;;;12.45;9.35;;;12.40;99.90;;;;;;6184502;23;20059;-85
2021/11/15 04:25:07;;;;;;;18.60;9.30;;;12.40;99.90;;;;;;6182173;23;20013;-86
2021/11/15 04:27:33;;;;;;;12.77;9.80;;;12.40;99.90;;;;;;6184911;23;20039;-86
2021/11/15 04:29:59;;;;;;;14.75;8.85;;;12.40;99.90;;;;;;6184046;23;20001;-86
2021/11/15 04:32:24;;;;;;;14.90;9.57;;;12.40;99.90;;;;;;6184971;23;20073;-87
2021/11/15 04:34:50;;;;;;;12.27;9.00;;;12.40;99.90;;;;;;6182586;23;20005;-85
2021/11/15 04:37:16;;;;;;;14.27;8.63;;;12.40;99.90;;;;;;6184281;23;20052;-87
2021/11/15 04:39:42;;;;;;;11.95;9.02;;;12.40;99.90;;;;;;6183026;23;20021;-88
2021/11/15 04:42:08;;;;;;;14.95;10.40;;;12.40;99.90;;;;;;6182950;23;20448;-86
2021/11/15 04:44:34;;;;;;;13.77;9.38;;;12.50;99.90;;;;;;6184371;23;20056;-87
2021/11/15 04:46:59;;;;;;;16.80;10.63;;;12.50;99.90;;;;;;6184471;23;20483;-89
2021/11/15 04:49:25;;;;;;;16.17;11.52;;;12.50;99.90;;;;;;6184904;23;19997;-88
2021/11/15 04:51:51;;;;;;;17.98;11.13;;;12.50;99.90;;;;;;6184639;23;20083;-88
2021/11/15 04:54:19;;;;;;;16.65;11.88;;;12.40;99.90;;;;;;6182837;23;20088;-86
2021/11/15 04:56:45;;;;;;;15.60;10.50;;;12.40;99.90;;;;;;6184220;23;20059;-86
2021/11/15 04:59:12;;;;;;;17.35;10.85;;;12.40;99.90;;;;;;6183904;23;20439;-87
2021/11/15 05:01:38;;;;;;;15.65;10.80;;;12.30;99.90;;;;;;6183699;23;20004;-85
2021/11/15 05:04:04;;;;;;;19.63;10.98;;;12.30;99.90;;;;;;6184618;23;20001;-85
2021/11/15 05:06:30;;;;;;;19.73;10.93;;;12.30;99.90;;;;;;6184352;23;20391;-85
2021/11/15 05:08:56;;;;;;;18.35;11.35;;;12.30;99.90;;;;;;6185142;23;20008;-87
2021/11/15 05:11:23;;;;;;;15.05;9.73;;;12.20;99.90;;;;;;6183949;23;20005;-88
2021/11/15 05:13:49;;;;;;;16.08;11.30;;;12.20;99.90;;;;;;6182588;23;20001;-86
2021/11/15 05:16:15;;;;;;;14.93;10.63;;;12.20;99.90;;;;;;6183950;23;20032;-85
2021/11/15 05:18:41;;;;;;;14.40;10.55;;;12.10;99.90;;;;;;6182510;23;20016;-84
2021/11/15 05:21:06;;;;;;;17.38;11.52;;;12.00;99.90;;;;;;6183740;23;20076;-87
2021/11/15 05:23:32;;;;;;;18.05;11.48;;;12.00;99.90;;;;;;6184704;23;20009;-87
2021/11/15 05:25:58;;;;;;;19.15;11.73;;;12.00;99.90;;;;;;6184131;23;20001;-87
2021/11/15 05:28:24;;;;;;;19.98;10.25;;;12.10;99.90;;;;;;6184355;23;20005;-85
2021/11/15 05:30:49;;;;;;;14.75;10.65;;;12.10;99.90;;;;;;6182326;23;20032;-85
2021/11/15 05:33:15;;;;;;;15.88;11.45;;;12.10;99.90;;;;;;6183543;23;20069;-86
2021/11/15 05:35:41;;;;;;;13.43;9.95;;;12.10;99.90;;;;;;6188142;23;19997;-88
2021/11/15 05:38:07;;;;;;;14.82;10.35;;;12.00;99.90;;;;;;6185946;23;20028;-90
2021/11/15 05:40:33;;;;;;;13.98;10.50;;;12.00;99.90;;;;;;6185137;23;20515;-87
2021/11/15 05:43:00;;;;;;;18.15;10.60;;;12.00;99.90;;;;;;6185355;23;19997;-86
2021/11/15 05:45:27;;;;;;;13.48;8.93;;;12.00;99.90;;;;;;6185121;23;20005;-88
2021/11/15 05:47:54;;;;;;;17.27;10.95;;;11.90;99.90;;;;;;6184299;23;20009;-88
2021/11/15 05:50:21;;;;;;;15.10;10.57;;;11.90;99.90;;;;;;6184201;23;20036;-87
2021/11/15 05:52:47;;;;;;;19.50;10.43;;;11.90;99.90;;;;;;6183690;23;20005;-87
2021/11/15 05:55:15;;;;;;;17.48;11.50;;;11.90;99.90;;;;;;6183048;23;20001;-86
2021/11/15 05:57:41;;;;;;;17.85;10.70;;;11.90;99.90;;;;;;6185529;23;20544;-87
2021/11/15 06:00:11;;;;;;;16.67;10.68;;;11.90;99.90;;;;;;6185378;23;20017;-87
2021/11/15 06:02:36;;;;;;;15.98;10.40;;;11.80;99.90;;;;;;6185411;23;20002;-87
2021/11/15 06:05:03;;;;;;;17.95;11.00;;;11.80;99.90;;;;;;6184097;23;20005;-86
2021/11/15 06:07:28;;;;;;;18.17;12.13;;;11.80;99.90;;;;;;6186866;23;20025;-91
2021/11/15 06:09:54;;;;;;;17.38;11.32;;;11.80;99.90;;;;;;6190491;23;20012;-91
2021/11/15 06:12:20;;;;;;;18.13;11.43;;;11.80;99.90;;;;;;6188111;23;20057;-85
2021/11/15 06:14:45;;;;;;;20.02;12.68;;;11.80;99.90;;;;;;6186695;23;20032;-83
2021/11/15 06:17:11;;;;;;;17.65;12.38;;;11.80;99.90;;;;;;6183665;23;20305;-82
2021/11/15 06:19:37;;;;;;;19.30;11.93;;;11.90;99.90;;;;;;6182638;23;20045;-82
2021/11/15 06:22:03;;;;;;;25.20;12.27;;;11.90;99.90;;;;;;6184017;23;20007;-86
2021/11/15 06:24:28;;;;;;;26.10;13.57;;;11.90;99.90;;;;;;6184297;23;20035;-84
2021/11/15 06:26:54;;;;;;;17.65;10.65;;;12.00;99.90;;;;;;6182890;23;20028;-83
2021/11/15 06:29:20;;;;;;;23.27;13.13;;;12.00;99.90;;;;;;6184685;23;20035;-86
2021/11/15 06:31:47;;;;;;;20.63;13.27;;;12.00;99.90;;;;;;6184811;23;20076;-85
2021/11/15 06:34:13;;;;;;;22.17;12.82;;;12.00;99.90;;;;;;6183090;23;20008;-87
2021/11/15 06:36:39;;;;;;;23.60;12.23;;;12.00;99.90;;;;;;6183449;23;20433;-84
2021/11/15 06:39:04;;;;;;;28.65;13.80;;;12.00;99.90;;;;;;6183319;23;20013;-84
2021/11/15 06:41:31;;;;;;;20.13;12.85;;;12.10;99.90;;;;;;6185828;23;19998;-85
2021/11/15 06:43:57;;;;;;;22.25;13.95;;;12.10;99.90;;;;;;6189653;23;20009;-86
2021/11/15 06:46:23;;;;;;;18.45;12.30;;;12.10;99.90;;;;;;6191962;23;19993;-84
2021/11/15 06:48:48;;;;;;;23.17;13.80;;;12.10;99.90;;;;;;6184496;23;20088;-85
2021/11/15 06:51:15;;;;;;;20.27;12.35;;;12.10;99.90;;;;;;6187646;23;19997;-85
2021/11/15 06:53:43;;;;;;;14.82;10.85;;;12.10;99.90;;;;;;6188462;23;20005;-85
2021/11/15 06:56:09;;;;;;;24.60;13.38;;;12.10;99.90;;;;;;6185402;23;20507;-86
2021/11/15 06:58:36;;;;;;;22.35;13.75;;;12.10;99.90;;;;;;6187816;23;20033;-85
2021/11/15 07:01:03;;;;;;;22.13;14.25;;;12.10;99.90;;;;;;6189234;23;20008;-89
2021/11/15 07:03:28;;;;;;;21.63;13.98;;;12.10;99.90;;;;;;6195841;23;20424;-90
2021/11/15 07:05:54;;;;;;;28.73;14.07;;;12.20;99.90;;;;;;6190249;23;20001;-89
2021/11/15 07:08:20;;;;;;;27.27;15.90;;;12.20;99.90;;;;;;6190282;23;20032;-89
2021/11/15 07:10:46;;;;;;;25.35;14.45;;;12.20;99.90;;;;;;6193790;23;20001;-91
2021/11/15 07:13:13;;;;;;;24.10;15.55;;;12.20;99.90;;;;;;6194622;23;20005;-87
2021/11/15 07:15:40;;;;;;;22.85;15.23;;;12.20;99.90;;;;;;6191431;23;20001;-88
2021/11/15 07:18:06;;;;;;;29.60;16.25;;;12.20;99.90;;;;;;6186686;23;20017;-86
2021/11/15 07:20:32;;;;;;;35.80;15.77;;;12.30;99.90;;;;;;6184832;23;20001;-87
2021/11/15 07:22:58;;;;;;;26.40;17.10;;;12.30;99.90;;;;;;6187707;23;20005;-87
2021/11/15 07:25:24;;;;;;;27.00;16.75;;;12.20;99.90;;;;;;6186747;23;20076;-88
2021/11/15 07:27:53;;;;;;;27.42;16.95;;;12.20;99.90;;;;;;6185612;23;20328;-88
2021/11/15 07:30:20;;;;;;;32.75;17.13;;;12.30;99.90;;;;;;6185729;23;20013;-87
2021/11/15 07:32:46;;;;;;;31.98;17.88;;;12.30;99.90;;;;;;6186158;23;20005;-89
2021/11/15 07:35:13;;;;;;;30.25;17.52;;;12.30;99.90;;;;;;6184203;23;20040;-88
2021/11/15 07:37:39;;;;;;;25.40;17.58;;;12.30;99.90;;;;;;6185140;23;20040;-88
2021/11/15 07:40:10;;;;;;;28.67;17.98;;;12.40;99.90;;;;;;6187163;23;20040;-87
2021/11/15 07:42:36;;;;;;;29.70;18.50;;;12.50;99.90;;;;;;6185854;23;20001;-88
2021/11/15 07:45:04;;;;;;;31.33;17.25;;;12.50;99.90;;;;;;6184877;23;20009;-87
2021/11/15 07:47:29;;;;;;;30.77;17.75;;;12.50;99.90;;;;;;6187818;23;20001;-87
2021/11/15 07:49:55;;;;;;;30.02;18.73;;;12.60;99.90;;;;;;6185441;23;20017;-88
2021/11/15 07:52:22;;;;;;;31.42;17.55;;;12.50;99.90;;;;;;6185235;23;20008;-80
2021/11/15 07:54:48;;;;;;;33.30;18.23;;;12.60;99.90;;;;;;6196810;23;20341;-89
2021/11/15 07:57:15;;;;;;;30.45;18.73;;;12.70;99.90;;;;;;6185053;23;19997;-85
2021/11/15 07:59:41;;;;;;;32.78;20.67;;;12.70;99.90;;;;;;6186163;23;20036;-84
2021/11/15 08:02:08;;;;;;;32.97;19.92;;;12.70;99.90;;;;;;6185106;23;20008;-88
2021/11/15 08:04:33;;;;;;;32.17;19.67;;;12.80;99.90;;;;;;6183965;23;20012;-85
2021/11/15 08:07:00;;;;;;;40.92;20.23;;;13.00;99.90;;;;;;6186079;23;20001;-88
2021/11/15 08:09:25;;;;;;;32.42;19.38;;;13.10;99.90;;;;;;6186317;23;20008;-89
2021/11/15 08:11:56;;;;;;;41.65;20.42;;;13.30;99.90;;;;;;6186450;23;20009;-89
2021/11/15 08:14:21;;;;;;;33.90;20.15;;;13.40;99.90;;;;;;6188062;23;20429;-90
2021/11/15 08:16:48;;;;;;;29.15;18.80;;;13.40;99.90;;;;;;6188249;23;20059;-89
2021/11/15 08:19:14;;;;;;;31.88;19.77;;;13.30;99.90;;;;;;6190836;23;20005;-89
2021/11/15 08:21:40;;;;;;;34.50;22.90;;;13.30;99.90;;;;;;6190261;23;20459;-89
2021/11/15 08:24:20;;;;;;;31.92;21.65;;;13.20;99.90;;;;;;6189573;23;20426;-88
2021/11/15 08:26:48;;;;;;;36.72;22.42;;;13.20;99.90;;;;;;6185950;23;19997;-88
2021/11/15 08:29:15;;;;;;;34.38;22.13;;;13.40;99.90;;;;;;6188817;23;20064;-88
2021/11/15 08:31:45;;;;;;;36.70;21.23;;;13.70;99.90;;;;;;6187413;23;20005;-90
2021/11/15 08:34:12;;;;;;;35.95;22.00;;;13.80;99.90;;;;;;6184885;23;20001;-88
2021/11/15 08:36:39;;;;;;;30.90;20.55;;;13.90;99.90;;;;;;6189501;23;20028;-89
2021/11/15 08:39:08;;;;;;;33.47;21.48;;;14.00;99.90;;;;;;6189661;23;20017;-89
2021/11/15 08:41:38;;;;;;;37.50;21.33;;;14.00;99.90;;;;;;6187370;23;20437;-89
2021/11/15 08:44:06;;;;;;;31.13;21.50;;;14.00;99.90;;;;;;6189581;23;20156;-89
2021/11/15 08:46:32;;;;;;;35.38;21.92;;;14.00;99.90;;;;;;6190102;23;20432;-88
2021/11/15 08:49:00;;;;;;;35.38;22.33;;;14.00;99.90;;;;;;6185808;23;20008;-87
2021/11/15 08:51:26;;;;;;;33.08;22.60;;;14.00;99.90;;;;;;6189931;23;19997;-88
2021/11/15 08:53:55;;;;;;;40.95;22.00;;;14.00;99.90;;;;;;6189285;23;20025;-86
2021/11/15 08:56:21;;;;;;;34.13;22.13;;;13.90;99.90;;;;;;6188813;23;20027;-88
2021/11/15 08:58:47;;;;;;;34.80;22.92;;;14.00;99.90;;;;;;6186454;23;20077;-88
2021/11/15 09:01:15;;;;;;;33.88;22.83;;;14.00;99.90;;;;;;6185700;23;20001;-84
2021/11/15 09:03:42;;;;;;;35.40;21.88;;;14.00;99.90;;;;;;6186600;23;20020;-87
2021/11/15 09:06:12;;;;;;;35.25;21.42;;;14.00;99.90;;;;;;6191107;23;20011;-90
2021/11/15 09:08:40;;;;;;;32.38;22.92;;;13.80;99.90;;;;;;6186098;23;20039;-92
2021/11/15 09:11:06;;;;;;;42.80;24.05;;;13.90;99.90;;;;;;6185790;23;20474;-86
2021/11/15 09:13:33;;;;;;;43.08;23.10;;;14.00;99.90;;;;;;6187000;23;20008;-89
2021/11/15 09:15:59;;;;;;;33.08;22.85;;;14.00;99.90;;;;;;6188360;23;20011;-89
2021/11/15 09:18:25;;;;;;;32.25;21.80;;;14.00;99.90;;;;;;6188758;23;20009;-89
2021/11/15 09:20:52;;;;;;;31.10;21.45;;;14.10;99.90;;;;;;6187505;23;20027;-88
2021/11/15 09:23:18;;;;;;;30.25;20.52;;;14.20;99.90;;;;;;6185963;23;20009;-86
2021/11/15 09:25:44;;;;;;;30.95;20.85;;;14.20;99.90;;;;;;6186936;23;20009;-87
2021/11/15 09:28:10;;;;;;;31.77;20.98;;;14.20;99.90;;;;;;6188641;23;20013;-89
2021/11/15 09:30:39;;;;;;;28.63;20.77;;;14.30;99.90;;;;;;6189893;23;20440;-89
2021/11/15 09:33:06;;;;;;;33.38;22.40;;;14.20;99.90;;;;;;6189034;23;20310;-88
2021/11/15 09:35:33;;;;;;;31.38;22.30;;;14.10;99.90;;;;;;6162406;23;20009;-88
2021/11/15 09:38:00;;;;;;;42.28;22.83;;;14.00;99.90;;;;;;6189869;23;20011;-90
2021/11/15 09:40:26;;;;;;;37.97;22.20;;;13.90;99.90;;;;;;6187607;23;20040;-89
2021/11/15 09:42:57;;;;;;;33.10;22.08;;;13.90;99.90;;;;;;6189551;23;20005;-87
2021/11/15 09:45:24;;;;;;;35.28;22.88;;;13.70;99.90;;;;;;6189470;23;19997;-89
2021/11/15 09:47:53;;;;;;;37.20;22.52;;;13.60;99.90;;;;;;6189847;23;20081;-90
2021/11/15 09:50:19;;;;;;;39.08;23.52;;;13.60;99.90;;;;;;6190611;23;20283;-90
2021/11/15 09:52:47;;;;;;;35.08;22.60;;;13.60;99.90;;;;;;6187713;23;20009;-89
2021/11/15 09:55:13;;;;;;;29.40;21.52;;;13.60;99.90;;;;;;6188553;23;20012;-92
2021/11/15 09:57:44;;;;;;;35.78;23.90;;;13.70;99.90;;;;;;6188129;23;20001;-88
2021/11/15 10:00:13;;;;;;;30.15;21.00;;;13.70;99.90;;;;;;6186892;23;20036;-90
2021/11/15 10:02:40;;;;;;;33.53;21.92;;;13.80;99.90;;;;;;6187185;23;20137;-89
2021/11/15 10:05:08;;;;;;;31.23;21.80;;;13.90;99.90;;;;;;6187720;23;20084;-89
2021/11/15 10:07:39;;;;;;;33.47;21.08;;;14.10;99.90;;;;;;6185186;23;20001;-88
2021/11/15 10:10:27;;;;;;;29.10;21.13;;;14.30;99.90;;;;;;6184976;23;20001;-82
2021/11/15 10:13:16;;;;;;;28.40;21.38;;;14.40;99.90;;;;;;6168023;23;20033;-82
2021/11/15 10:15:45;;;;;;;33.05;21.70;;;14.40;99.90;;;;;;6185025;23;20440;-86
2021/11/15 10:18:13;;;;;;;34.47;22.33;;;14.30;99.90;;;;;;6182958;23;20372;-87
2021/11/15 10:21:11;;;;;;;36.08;21.65;;;14.20;99.90;;;;;;6183776;23;20036;-83
2021/11/15 10:23:42;;;;;;;57.28;23.23;;;14.30;99.90;;;;;;6184419;23;20036;-85
2021/11/15 10:26:10;;;;;;;32.40;22.30;;;14.30;99.90;;;;;;6182717;23;20361;-85
2021/11/15 10:28:36;;;;;;;47.88;25.20;;;14.40;99.90;;;;;;6187363;23;20008;-87
2021/11/15 10:31:02;;;;;;;37.05;21.50;;;14.50;99.90;;;;;;6183702;23;20332;-84
2021/11/15 10:33:39;;;;;;;30.35;21.05;;;14.80;99.90;;;;;;6185635;23;20001;-90
2021/11/15 10:36:06;;;;;;;31.55;21.13;;;15.10;99.90;;;;;;6160731;23;20156;-89
2021/11/15 10:38:41;;;;;;;27.63;20.40;;;15.30;99.90;;;;;;6185069;23;20455;-85
2021/11/15 10:41:19;;;;;;;31.05;21.33;;;15.50;99.90;;;;;;6186131;23;20036;-82
2021/11/15 10:43:46;;;;;;;29.63;21.10;;;15.50;99.90;;;;;;6185138;23;20008;-86
2021/11/15 10:46:32;;;;;;;30.33;21.42;;;15.50;99.90;;;;;;6186688;23;20029;-81
2021/11/15 10:48:59;;;;;;;33.25;21.95;;;15.40;99.90;;;;;;6183492;23;20387;-84
2021/11/15 10:51:52;;;;;;;27.83;19.08;;;15.50;99.90;;;;;;6184039;23;20001;-84
2021/11/15 10:54:54;;;;;;;30.75;21.30;;;15.80;99.90;;;;;;6187420;23;20001;-85
2021/11/15 10:57:39;;;;;;;31.38;20.10;;;15.90;99.90;;;;;;6184690;23;20012;-85
2021/11/15 11:00:05;;;;;;;31.88;19.98;;;16.00;99.90;;;;;;6183179;23;20017;-86
2021/11/15 11:02:32;;;;;;;37.80;20.75;;;15.70;99.90;;;;;;6184925;23;20027;-82
2021/11/15 11:05:18;;;;;;;26.98;20.35;;;15.50;99.90;;;;;;6184633;23;20029;-83
2021/11/15 11:08:02;;;;;;;25.92;19.95;;;15.40;99.90;;;;;;6182898;23;20009;-83
2021/11/15 11:10:31;;;;;;;28.38;20.20;;;15.20;99.90;;;;;;6184011;23;20432;-84
2021/11/15 11:13:03;;;;;;;28.30;19.25;;;15.20;99.90;;;;;;6183236;23;20001;-82
2021/11/15 11:15:53;;;;;;;;;;;15.30;99.90;;;;;;6180808;23;20009;-82
2021/11/15 11:18:39;;;;;;;23.92;18.17;;;15.30;99.90;;;;;;6181764;23;19916;-82
2021/11/15 11:26:43;;;;;;;32.85;20.55;;;15.70;99.90;;;;;;6180349;23;20106;-82
2021/11/15 11:29:13;;;;;;;28.05;20.13;;;15.60;99.90;;;;;;6179148;23;20044;-83
2021/11/15 11:31:53;;;;;;;30.30;19.50;;;15.50;99.90;;;;;;6180209;23;20006;-83
2021/11/15 11:34:20;;;;;;;35.90;19.92;;;15.40;99.90;;;;;;6178770;23;20091;-82
2021/11/15 11:36:46;;;;;;;24.30;18.52;;;15.30;99.90;;;;;;6179161;23;20015;-85
2021/11/15 11:39:13;;;;;;;27.88;19.67;;;15.40;99.90;;;;;;6180571;23;20020;-83
2021/11/15 11:41:53;;;;;;;33.45;19.08;;;15.60;99.90;;;;;;6180628;23;20459;-84
2021/11/15 11:44:20;;;;;;;25.02;18.50;;;15.80;99.90;;;;;;6183947;23;20020;-83
2021/11/15 11:46:46;;;;;;;34.92;18.15;;;15.60;99.90;;;;;;6182291;23;20028;-83
2021/11/15 11:49:18;;;;;;;26.73;17.63;;;15.50;99.90;;;;;;6180183;23;20020;-85
2021/11/15 11:51:52;;;;;;;22.27;16.85;;;15.40;99.90;;;;;;6180332;23;20012;-83
2021/11/15 11:54:25;;;;;;;25.60;17.70;;;15.40;99.90;;;;;;6154168;23;20017;-83
2021/11/15 11:57:14;;;;;;;23.90;17.25;;;15.50;99.90;;;;;;6154275;23;20016;-82
2021/11/15 12:00:03;;;;;;;22.52;15.55;;;15.90;99.90;;;;;;6181594;23;20432;-83
2021/11/15 12:02:31;;;;;;;22.77;15.93;;;15.80;99.50;;;;;;6181100;23;20041;-80
2021/11/15 12:05:04;;;;;;;22.10;15.70;;;16.10;99.40;;;;;;6180465;23;20028;-85
2021/11/15 12:07:46;;;;;;;25.13;14.82;;;16.20;99.20;;;;;;6186177;23;20459;-89
2021/11/15 12:10:34;;;;;;;25.73;15.33;;;16.20;98.10;;;;;;6184795;23;20088;-87
2021/11/15 12:13:05;;;;;;;33.10;16.20;;;15.80;98.40;;;;;;6184173;23;20428;-86
2021/11/15 12:15:35;;;;;;;25.08;15.05;;;15.90;98.80;;;;;;6181233;23;20445;-88
2021/11/15 12:18:24;;;;;;;19.88;15.25;;;16.10;98.10;;;;;;6183364;23;20012;-87
2021/11/15 12:21:05;;;;;;;25.70;15.52;;;15.90;98.60;;;;;;6180959;23;20012;-88
2021/11/15 12:23:49;;;;;;;20.50;16.58;;;16.20;98.50;;;;;;6185777;23;20191;-89
2021/11/15 12:26:26;;;;;;;25.55;16.73;;;16.90;97.30;;;;;;6187808;23;20116;-88
2021/11/15 12:28:59;;;;;;;22.20;15.45;;;18.00;95.20;;;;;;6195880;23;20005;-93
2021/11/15 12:31:45;;;;;;;22.63;16.30;;;18.50;93.70;;;;;;6192923;23;20035;-91
2021/11/15 12:34:14;;;;;;;18.75;14.68;;;19.10;92.30;;;;;;6196226;23;20032;-92
2021/11/15 12:37:04;;;;;;;20.25;14.43;;;19.10;91.20;;;;;;6202324;23;20013;-90
2021/11/15 12:39:43;;;;;;;21.85;15.18;;;19.90;88.90;;;;;;6197448;23;20021;-91
2021/11/15 12:42:26;;;;;;;17.08;13.57;;;20.90;84.00;;;;;;6198361;23;20009;-92
2021/11/15 12:45:18;;;;;;;25.85;15.38;;;20.10;82.30;;;;;;6169576;23;20028;-89